createdAt,value
2022-12-14T00:01:41.171Z,96878.00
2022-12-14T00:04:09.033Z,96879.00
2022-12-14T00:06:36.719Z,96876.00
2022-12-14T00:09:06.426Z,96869.00
2022-12-14T00:11:34.676Z,96870.00
2022-12-14T00:14:04.765Z,96865.00
2022-12-14T00:16:34.453Z,96871.00
2022-12-14T00:19:02.794Z,96868.00
2022-12-14T00:21:30.963Z,96862.00
2022-12-14T00:23:59.913Z,96852.00
2022-12-14T00:26:30.968Z,96849.00
2022-12-14T00:28:59.819Z,96843.00
2022-12-14T00:31:27.637Z,96841.00
2022-12-14T00:33:55.459Z,96848.00
2022-12-14T00:36:23.354Z,96849.00
2022-12-14T00:38:51.057Z,96849.00
2022-12-14T00:41:18.730Z,96852.00
2022-12-14T00:43:49.326Z,96835.00
2022-12-14T00:46:17.884Z,96837.00
2022-12-14T00:48:46.204Z,96843.00
2022-12-14T00:51:14.861Z,96837.00
2022-12-14T00:53:44.678Z,96823.00
2022-12-14T00:56:12.635Z,96821.00
2022-12-14T00:58:40.294Z,96820.00
2022-12-14T01:01:13.438Z,96820.00
2022-12-14T01:03:41.491Z,96832.00
2022-12-14T01:06:15.066Z,96832.00
2022-12-14T01:08:42.828Z,96839.00
2022-12-14T01:11:11.867Z,96835.00
2022-12-14T01:13:40.255Z,96844.00
2022-12-14T01:16:11.993Z,96850.00
2022-12-14T01:18:41.289Z,96865.00
2022-12-14T01:21:13.872Z,96866.00
2022-12-14T01:23:42.242Z,96866.00
2022-12-14T01:26:09.922Z,96858.00
2022-12-14T01:28:37.646Z,96858.00
2022-12-14T01:31:11.935Z,96851.00
2022-12-14T01:33:39.999Z,96852.00
2022-12-14T01:36:09.789Z,96842.00
2022-12-14T01:38:38.052Z,96848.00
2022-12-14T01:41:06.955Z,96838.00
2022-12-14T01:43:48.749Z,96832.00
2022-12-14T01:46:23.059Z,96819.00
2022-12-14T01:48:54.484Z,96814.00
2022-12-14T01:51:22.219Z,96815.00
2022-12-14T01:53:50.253Z,96802.00
2022-12-14T01:56:18.715Z,96802.00
2022-12-14T01:58:46.573Z,96802.00
2022-12-14T02:01:14.976Z,96805.00
2022-12-14T02:03:46.459Z,96803.00
2022-12-14T02:06:18.781Z,96800.00
2022-12-14T02:08:48.045Z,96808.00
2022-12-14T02:11:17.447Z,96800.00
2022-12-14T02:13:45.670Z,96801.00
2022-12-14T02:16:16.746Z,96797.00
2022-12-14T02:18:45.897Z,96799.00
2022-12-14T02:21:25.492Z,96795.00
2022-12-14T02:24:19.880Z,96801.00
2022-12-14T02:27:08.512Z,96802.00
2022-12-14T02:29:51.998Z,96798.00
2022-12-14T02:32:40.382Z,96793.00
2022-12-14T02:35:18.962Z,96795.00
2022-12-14T02:37:54.921Z,96788.00
2022-12-14T02:40:29.447Z,96785.00
2022-12-14T02:43:05.581Z,96777.00
2022-12-14T02:45:41.018Z,96763.00
2022-12-14T02:48:13.167Z,96757.00
2022-12-14T02:50:44.584Z,96749.00
2022-12-14T02:53:21.627Z,96748.00
2022-12-14T02:55:52.268Z,96740.00
2022-12-14T02:58:24.426Z,96736.00
2022-12-14T03:00:55.310Z,96720.00
2022-12-14T03:03:23.704Z,96724.00
2022-12-14T03:05:59.344Z,96722.00
2022-12-14T03:08:28.960Z,96723.00
2022-12-14T03:10:59.840Z,96718.00
2022-12-14T03:13:31.972Z,96721.00
2022-12-14T03:16:05.808Z,96703.00
2022-12-14T03:18:38.673Z,96705.00
2022-12-14T03:21:10.491Z,96711.00
2022-12-14T03:23:42.312Z,96707.00
2022-12-14T03:26:14.835Z,96711.00
2022-12-14T03:28:46.654Z,96704.00
2022-12-14T03:31:20.523Z,96709.00
2022-12-14T03:33:50.919Z,96713.00
2022-12-14T03:36:26.222Z,96714.00
2022-12-14T03:38:58.497Z,96704.00
2022-12-14T03:41:31.840Z,96709.00
2022-12-14T03:44:10.212Z,96704.00
2022-12-14T03:46:45.097Z,96696.00
2022-12-14T03:49:21.347Z,96690.00
2022-12-14T03:51:58.515Z,96677.00
2022-12-14T03:54:37.397Z,96680.00
2022-12-14T03:57:13.374Z,96687.00
2022-12-14T03:59:48.765Z,96682.00
2022-12-14T04:02:26.756Z,96679.00
2022-12-14T04:05:00.232Z,96669.00
2022-12-14T04:07:37.125Z,96678.00
2022-12-14T04:10:29.217Z,96672.00
2022-12-14T04:13:21.212Z,96685.00
2022-12-14T04:16:08.529Z,96676.00
2022-12-14T04:19:00.450Z,96684.00
2022-12-14T04:21:35.141Z,96677.00
2022-12-14T04:24:26.804Z,96678.00
2022-12-14T04:26:57.748Z,96677.00
2022-12-14T04:29:47.500Z,96673.00
2022-12-14T04:32:20.472Z,96674.00
2022-12-14T04:34:52.237Z,96673.00
2022-12-14T04:37:22.293Z,96661.00
2022-12-14T04:39:53.710Z,96642.00
2022-12-14T04:42:25.190Z,96647.00
2022-12-14T04:44:57.156Z,96641.00
2022-12-14T04:47:30.822Z,96636.00
2022-12-14T04:50:04.156Z,96625.00
2022-12-14T04:52:35.975Z,96615.00
2022-12-14T04:55:09.809Z,96617.00
2022-12-14T04:57:45.869Z,96629.00
2022-12-14T05:00:14.393Z,96616.00
2022-12-14T05:02:57.465Z,96601.00
2022-12-14T05:05:31.496Z,96598.00
2022-12-14T05:08:07.370Z,96591.00
2022-12-14T05:10:39.813Z,96602.00
2022-12-14T05:13:13.545Z,96598.00
2022-12-14T05:15:45.191Z,96603.00
2022-12-14T05:18:13.027Z,96591.00
2022-12-14T05:20:42.138Z,96586.00
2022-12-14T05:23:09.831Z,96583.00
2022-12-14T05:25:37.574Z,96581.00
2022-12-14T05:28:05.589Z,96572.00
2022-12-14T05:30:33.327Z,96573.00
2022-12-14T05:33:01.191Z,96568.00
2022-12-14T05:35:28.817Z,96560.00
2022-12-14T05:37:57.856Z,96562.00
2022-12-14T05:40:25.506Z,96564.00
2022-12-14T05:42:55.822Z,96549.00
2022-12-14T05:45:23.799Z,96549.00
2022-12-14T05:47:51.433Z,96541.00
2022-12-14T05:50:19.307Z,96546.00
2022-12-14T05:52:46.953Z,96548.00
2022-12-14T05:55:16.116Z,96551.00
2022-12-14T05:57:43.754Z,96548.00
2022-12-14T06:00:12.590Z,96548.00
2022-12-14T06:02:40.624Z,96547.00
2022-12-14T06:05:09.068Z,96551.00
2022-12-14T06:07:36.761Z,96547.00
2022-12-14T06:10:05.151Z,96540.00
2022-12-14T06:12:34.657Z,96540.00
2022-12-14T06:15:02.300Z,96538.00
2022-12-14T06:17:29.952Z,96535.00
2022-12-14T06:19:57.706Z,96541.00
2022-12-14T06:22:26.143Z,96541.00
2022-12-14T06:24:53.774Z,96539.00
2022-12-14T06:27:21.442Z,96535.00
2022-12-14T06:29:50.413Z,96527.00
2022-12-14T06:32:18.115Z,96510.00
2022-12-14T06:34:45.954Z,96504.00
2022-12-14T06:37:13.654Z,96512.00
2022-12-14T06:39:41.329Z,96519.00
2022-12-14T06:42:09.448Z,96529.00
2022-12-14T06:44:37.388Z,96522.00
2022-12-14T06:47:07.296Z,96520.00
2022-12-14T06:49:35.547Z,96527.00
2022-12-14T06:52:03.202Z,96527.00
2022-12-14T06:54:30.915Z,96519.00
2022-12-14T06:56:58.580Z,96517.00
2022-12-14T06:59:26.249Z,96514.00
2022-12-14T07:01:54.001Z,96514.00
2022-12-14T07:04:23.060Z,96512.00
2022-12-14T07:06:50.780Z,96516.00
2022-12-14T07:09:18.746Z,96533.00
2022-12-14T07:11:46.385Z,96516.00
2022-12-14T07:14:17.507Z,96506.00
2022-12-14T07:16:48.786Z,96490.00
2022-12-14T07:19:17.398Z,96469.00
2022-12-14T07:21:46.881Z,96464.00
2022-12-14T07:24:15.091Z,96478.00
2022-12-14T07:26:43.495Z,96470.00
2022-12-14T07:29:11.955Z,96465.00
2022-12-14T07:31:39.689Z,96480.00
2022-12-14T07:34:07.338Z,96490.00
2022-12-14T07:36:34.977Z,96486.00
2022-12-14T07:39:04.012Z,96486.00
2022-12-14T07:41:32.466Z,96486.00
2022-12-14T07:44:01.491Z,96495.00
2022-12-14T07:46:30.784Z,96499.00
2022-12-14T07:48:59.766Z,96499.00
2022-12-14T07:51:29.656Z,96501.00
2022-12-14T07:53:57.867Z,96492.00
2022-12-14T07:56:28.398Z,96484.00
2022-12-14T07:58:57.174Z,96471.00
2022-12-14T08:01:26.281Z,96466.00
2022-12-14T08:03:56.424Z,96469.00
2022-12-14T08:06:26.668Z,96479.00
2022-12-14T08:08:54.817Z,96480.00
2022-12-14T08:11:23.312Z,96489.00
2022-12-14T08:13:55.078Z,96477.00
2022-12-14T08:16:23.102Z,96479.00
2022-12-14T08:18:51.776Z,96468.00
2022-12-14T08:21:21.609Z,96469.00
2022-12-14T08:23:50.296Z,96452.00
2022-12-14T08:26:18.627Z,96441.00
2022-12-14T08:28:47.585Z,96453.00
2022-12-14T08:31:18.406Z,96427.00
2022-12-14T08:33:48.131Z,96428.00
2022-12-14T08:36:17.750Z,96427.00
2022-12-14T08:38:45.648Z,96416.00
2022-12-14T08:41:15.386Z,96407.00
2022-12-14T08:43:43.181Z,96406.00
2022-12-14T08:46:12.032Z,96401.00
2022-12-14T08:48:41.119Z,96394.00
2022-12-14T08:51:10.589Z,96376.00
2022-12-14T08:53:39.249Z,96381.00
2022-12-14T08:56:08.647Z,96374.00
2022-12-14T08:58:36.684Z,96373.00
2022-12-14T09:01:05.814Z,96371.00
2022-12-14T09:03:34.080Z,96371.00
2022-12-14T09:06:07.804Z,96370.00
2022-12-14T09:08:35.881Z,96371.00
2022-12-14T09:11:04.755Z,96386.00
2022-12-14T09:13:33.585Z,96400.00
2022-12-14T09:16:04.105Z,96409.00
2022-12-14T09:18:34.342Z,96403.00
2022-12-14T09:21:02.896Z,96389.00
2022-12-14T09:23:33.956Z,96374.00
2022-12-14T09:26:04.087Z,96385.00
2022-12-14T09:28:32.682Z,96372.00
2022-12-14T09:31:02.509Z,96353.00
2022-12-14T09:33:31.156Z,96356.00
2022-12-14T09:36:03.606Z,96354.00
2022-12-14T09:38:34.148Z,96363.00
2022-12-14T09:41:07.441Z,96351.00
2022-12-14T09:43:41.346Z,96347.00
2022-12-14T09:46:21.868Z,96359.00
2022-12-14T09:48:50.686Z,96362.00
2022-12-14T09:51:21.512Z,96371.00
2022-12-14T09:54:02.031Z,96369.00
2022-12-14T09:56:30.163Z,96363.00
2022-12-14T09:59:00.153Z,96366.00
2022-12-14T10:02:13.989Z,96367.00
2022-12-14T10:04:53.548Z,96381.00
2022-12-14T10:07:34.161Z,96380.00
2022-12-14T10:10:11.990Z,96382.00
2022-12-14T10:12:52.976Z,96388.00
2022-12-14T10:15:27.579Z,96379.00
2022-12-14T10:18:56.775Z,96366.00
2022-12-14T10:21:12.940Z,96362.00
2022-12-14T10:23:43.365Z,96349.00
2022-12-14T10:26:19.792Z,96340.00
2022-12-14T10:28:59.283Z,96324.00
2022-12-14T10:31:36.896Z,96314.00
2022-12-14T10:34:18.801Z,96307.00
2022-12-14T10:36:54.159Z,96306.00
2022-12-14T10:39:35.063Z,96292.00
2022-12-14T10:42:16.476Z,96298.00
2022-12-14T10:45:09.690Z,96299.00
2022-12-14T10:47:45.712Z,96302.00
2022-12-14T10:50:19.251Z,96288.00
2022-12-14T10:52:50.234Z,96292.00
2022-12-14T10:55:24.733Z,96281.00
2022-12-14T10:57:53.735Z,96269.00
2022-12-14T11:00:23.440Z,96261.00
2022-12-14T11:02:55.274Z,96251.00
2022-12-14T11:05:37.878Z,96247.00
2022-12-14T11:08:07.283Z,96256.00
2022-12-14T11:10:36.361Z,96260.00
2022-12-14T11:13:07.473Z,96252.00
2022-12-14T11:15:38.039Z,96245.00
2022-12-14T11:18:20.755Z,96248.00
2022-12-14T11:20:52.108Z,96254.00
2022-12-14T11:23:21.466Z,96249.00
2022-12-14T11:25:51.441Z,96256.00
2022-12-14T11:28:34.430Z,96250.00
2022-12-14T11:31:06.876Z,96246.00
2022-12-14T11:33:37.145Z,96251.00
2022-12-14T11:36:05.249Z,96256.00
2022-12-14T11:38:33.191Z,96245.00
2022-12-14T11:41:10.695Z,96237.00
2022-12-14T11:43:41.165Z,96231.00
2022-12-14T11:46:08.923Z,96244.00
2022-12-14T11:48:39.269Z,96243.00
2022-12-14T11:51:11.874Z,96236.00
2022-12-14T11:53:39.974Z,96237.00
2022-12-14T11:56:11.797Z,96235.00
2022-12-14T11:58:47.533Z,96235.00
2022-12-14T12:01:17.592Z,96237.00
2022-12-14T12:03:48.456Z,96242.00
2022-12-14T12:06:22.488Z,96248.00
2022-12-14T12:08:55.842Z,96245.00
2022-12-14T12:11:27.353Z,96241.00
2022-12-14T12:14:00.698Z,96241.00
2022-12-14T12:16:32.760Z,96239.00
2022-12-14T12:19:11.766Z,96245.00
2022-12-14T12:21:42.366Z,96236.00
2022-12-14T12:24:17.810Z,96233.00
2022-12-14T12:26:50.242Z,96223.00
2022-12-14T12:29:25.326Z,96219.00
2022-12-14T12:31:57.397Z,96221.00
2022-12-14T12:34:29.262Z,96213.00
2022-12-14T12:37:25.303Z,96212.00
2022-12-14T12:39:51.781Z,96213.00
2022-12-14T12:42:24.272Z,96208.00
2022-12-14T12:44:59.253Z,96203.00
2022-12-14T12:47:44.421Z,96210.00
2022-12-14T12:50:16.928Z,96210.00
2022-12-14T12:52:56.597Z,96219.00
2022-12-14T12:55:29.124Z,96216.00
2022-12-14T12:57:59.792Z,96208.00
2022-12-14T13:00:30.633Z,96205.00
2022-12-14T13:03:02.155Z,96208.00
2022-12-14T13:05:48.505Z,96217.00
2022-12-14T13:08:23.663Z,96221.00
2022-12-14T13:13:46.210Z,96211.00
2022-12-14T13:16:26.317Z,96212.00
2022-12-14T13:19:08.349Z,96218.00
2022-12-14T13:21:47.982Z,96215.00
2022-12-14T13:24:20.198Z,96208.00
2022-12-14T13:27:04.511Z,96209.00
2022-12-14T13:29:46.866Z,96208.00
2022-12-14T13:32:37.030Z,96214.00
2022-12-14T13:35:18.378Z,96221.00
2022-12-14T13:37:58.720Z,96219.00
2022-12-14T13:41:04.797Z,96230.00
2022-12-14T13:44:00.297Z,96218.00
2022-12-14T13:46:29.122Z,96229.00
2022-12-14T13:49:02.817Z,96232.00
2022-12-14T13:51:33.279Z,96234.00
2022-12-14T13:54:04.528Z,96236.00
2022-12-14T13:56:35.318Z,96231.00
2022-12-14T13:59:07.403Z,96231.00
2022-12-14T14:02:00.647Z,96246.00
2022-12-14T14:04:30.655Z,96250.00
2022-12-14T14:07:45.277Z,96249.00
2022-12-14T14:10:30.412Z,96265.00
2022-12-14T14:12:58.210Z,96258.00
2022-12-14T14:16:26.438Z,96255.00
2022-12-14T14:18:49.416Z,96259.00
2022-12-14T14:21:58.777Z,96263.00
2022-12-14T14:24:29.536Z,96252.00
2022-12-14T14:27:09.512Z,96251.00
2022-12-14T14:29:38.932Z,96245.00
2022-12-14T14:32:25.889Z,96243.00
2022-12-14T14:34:54.200Z,96247.00
2022-12-14T14:37:32.017Z,96247.00
2022-12-14T14:40:18.344Z,96244.00
2022-12-14T14:42:52.986Z,96248.00
2022-12-14T14:45:34.435Z,96254.00
2022-12-14T14:48:04.196Z,96244.00
2022-12-14T14:50:37.317Z,96250.00
2022-12-14T14:53:28.942Z,96254.00
2022-12-14T14:56:46.138Z,96256.00
2022-12-14T14:59:50.621Z,96262.00
2022-12-14T15:02:29.999Z,96271.00
2022-12-14T15:05:17.447Z,96266.00
2022-12-14T15:07:46.549Z,96267.00
2022-12-14T15:10:25.310Z,96262.00
2022-12-14T15:12:55.518Z,96274.00
2022-12-14T15:15:27.928Z,96277.00
2022-12-14T15:17:55.755Z,96274.00
2022-12-14T15:20:25.110Z,96280.00
2022-12-14T15:22:55.509Z,96282.00
2022-12-14T15:25:26.993Z,96302.00
2022-12-14T15:27:55.451Z,96291.00
2022-12-14T15:30:25.689Z,96305.00
2022-12-14T15:32:56.348Z,96306.00
2022-12-14T15:35:26.301Z,96304.00
2022-12-14T15:38:00.123Z,96301.00
2022-12-14T15:40:31.272Z,96302.00
2022-12-14T15:43:00.636Z,96302.00
2022-12-14T15:45:31.136Z,96296.00
2022-12-14T15:48:14.050Z,96294.00
2022-12-14T15:50:45.212Z,96288.00
2022-12-14T15:53:15.911Z,96298.00
2022-12-14T15:55:56.377Z,96313.00
2022-12-14T15:58:31.288Z,96321.00
2022-12-14T16:01:04.773Z,96320.00
2022-12-14T16:03:36.111Z,96325.00
2022-12-14T16:06:05.166Z,96333.00
2022-12-14T16:08:36.412Z,96334.00
2022-12-14T16:11:11.859Z,96338.00
2022-12-14T16:13:42.816Z,96342.00
2022-12-14T16:16:13.833Z,96339.00
2022-12-14T16:18:45.224Z,96341.00
2022-12-14T16:21:30.380Z,96344.00
2022-12-14T16:23:58.400Z,96346.00
2022-12-14T16:26:31.792Z,96343.00
2022-12-14T16:29:10.081Z,96357.00
2022-12-14T16:31:38.468Z,96356.00
2022-12-14T16:34:09.485Z,96355.00
2022-12-14T16:36:37.973Z,96351.00
2022-12-14T16:39:15.187Z,96360.00
2022-12-14T16:41:55.168Z,96360.00
2022-12-14T16:44:25.283Z,96366.00
2022-12-14T16:47:23.246Z,96372.00
2022-12-14T16:49:56.010Z,96371.00
2022-12-14T16:52:26.929Z,96375.00
2022-12-14T16:55:13.071Z,96376.00
2022-12-14T16:57:54.682Z,96381.00
2022-12-14T17:00:25.152Z,96390.00
2022-12-14T17:02:58.231Z,96383.00
2022-12-14T17:05:28.725Z,96375.00
2022-12-14T17:07:56.834Z,96377.00
2022-12-14T17:10:26.930Z,96375.00
2022-12-14T17:12:58.885Z,96380.00
2022-12-14T17:15:28.004Z,96388.00
2022-12-14T17:17:58.090Z,96384.00
2022-12-14T17:20:28.628Z,96387.00
2022-12-14T17:22:59.044Z,96394.00
2022-12-14T17:25:28.028Z,96394.00
2022-12-14T17:27:57.504Z,96400.00
2022-12-14T17:30:25.989Z,96398.00
2022-12-14T17:32:55.347Z,96406.00
2022-12-14T17:35:25.687Z,96408.00
2022-12-14T17:37:53.747Z,96417.00
2022-12-14T17:40:21.544Z,96416.00
2022-12-14T17:42:53.187Z,96423.00
2022-12-14T17:45:24.727Z,96423.00
2022-12-14T17:47:52.501Z,96434.00
2022-12-14T17:50:20.886Z,96432.00
2022-12-14T17:52:50.298Z,96440.00
2022-12-14T17:55:20.317Z,96441.00
2022-12-14T17:57:49.043Z,96437.00
2022-12-14T18:00:35.439Z,96439.00
2022-12-14T18:03:05.846Z,96448.00
2022-12-14T18:05:34.392Z,96462.00
2022-12-14T18:08:02.118Z,96464.00
2022-12-14T18:10:29.759Z,96465.00
2022-12-14T18:12:57.931Z,96472.00
2022-12-14T18:15:27.612Z,96477.00
2022-12-14T18:17:55.678Z,96466.00
2022-12-14T18:20:24.982Z,96476.00
2022-12-14T18:22:53.312Z,96459.00
2022-12-14T18:25:31.529Z,96471.00
2022-12-14T18:27:59.672Z,96465.00
2022-12-14T18:30:30.965Z,96462.00
2022-12-14T18:33:02.854Z,96461.00
2022-12-14T18:35:34.119Z,96471.00
2022-12-14T18:38:01.802Z,96471.00
2022-12-14T18:40:31.131Z,96475.00
2022-12-14T18:42:59.095Z,96479.00
2022-12-14T18:45:28.681Z,96487.00
2022-12-14T18:47:56.369Z,96496.00
2022-12-14T18:50:24.936Z,96494.00
2022-12-14T18:52:55.565Z,96504.00
2022-12-14T18:55:25.830Z,96494.00
2022-12-14T18:57:55.499Z,96496.00
2022-12-14T19:00:25.762Z,96499.00
2022-12-14T19:02:57.442Z,96502.00
2022-12-14T19:05:26.413Z,96503.00
2022-12-14T19:07:57.368Z,96508.00
2022-12-14T19:10:27.289Z,96512.00
2022-12-14T19:12:55.983Z,96515.00
2022-12-14T19:15:26.137Z,96511.00
2022-12-14T19:17:54.503Z,96510.00
2022-12-14T19:20:23.436Z,96519.00
2022-12-14T19:22:51.159Z,96517.00
2022-12-14T19:25:21.525Z,96525.00
2022-12-14T19:30:37.221Z,96541.00
2022-12-14T19:33:05.157Z,96539.00
2022-12-14T19:35:32.942Z,96531.00
2022-12-14T19:38:00.647Z,96538.00
2022-12-14T19:40:29.676Z,96532.00
2022-12-14T19:42:57.408Z,96537.00
2022-12-14T19:45:25.330Z,96539.00
2022-12-14T19:47:53.003Z,96541.00
2022-12-14T19:50:21.248Z,96544.00
2022-12-14T19:52:49.054Z,96538.00
2022-12-14T19:55:16.717Z,96541.00
2022-12-14T19:57:45.761Z,96541.00
2022-12-14T20:00:14.397Z,96534.00
2022-12-14T20:02:42.237Z,96542.00
2022-12-14T20:05:10.442Z,96540.00
2022-12-14T20:07:43.518Z,96547.00
2022-12-14T20:10:11.652Z,96556.00
2022-12-14T20:12:39.453Z,96561.00
2022-12-14T20:15:09.253Z,96561.00
2022-12-14T20:17:36.916Z,96570.00
2022-12-14T20:20:04.850Z,96571.00
2022-12-14T20:22:32.817Z,96575.00
2022-12-14T20:25:00.501Z,96581.00
2022-12-14T20:27:28.213Z,96578.00
2022-12-14T20:29:55.836Z,96583.00
2022-12-14T20:32:24.832Z,96594.00
2022-12-14T20:34:52.490Z,96590.00
2022-12-14T20:37:20.122Z,96604.00
2022-12-14T20:39:47.774Z,96598.00
2022-12-14T20:42:15.430Z,96603.00
2022-12-14T20:44:43.132Z,96604.00
2022-12-14T20:47:17.062Z,96609.00
2022-12-14T20:49:46.181Z,96612.00
2022-12-14T20:52:13.876Z,96608.00
2022-12-14T20:54:41.523Z,96608.00
2022-12-14T20:57:09.300Z,96614.00
2022-12-14T20:59:36.957Z,96624.00
2022-12-14T21:02:04.923Z,96635.00
2022-12-14T21:04:32.752Z,96635.00
2022-12-14T21:07:01.794Z,96638.00
2022-12-14T21:09:29.441Z,96646.00
2022-12-14T21:12:14.809Z,96644.00
2022-12-14T21:14:43.472Z,96641.00
2022-12-14T21:17:11.347Z,96641.00
2022-12-14T21:19:39.234Z,96646.00
2022-12-14T21:22:11.639Z,96646.00
2022-12-14T21:27:30.184Z,96646.00
2022-12-14T21:29:57.937Z,96653.00
2022-12-14T21:32:25.636Z,96659.00
2022-12-14T21:34:53.350Z,96661.00
2022-12-14T21:37:22.393Z,96654.00
2022-12-14T21:39:54.809Z,96657.00
2022-12-14T21:42:23.022Z,96666.00
2022-12-14T21:44:52.371Z,96671.00
2022-12-14T21:47:21.729Z,96675.00
2022-12-14T21:49:49.596Z,96670.00
2022-12-14T21:52:19.313Z,96667.00
2022-12-14T21:54:48.384Z,96667.00
2022-12-14T21:57:34.346Z,96668.00
2022-12-14T22:00:02.504Z,96668.00
2022-12-14T22:02:31.599Z,96657.00
2022-12-14T22:05:02.244Z,96652.00
2022-12-14T22:07:32.349Z,96651.00
2022-12-14T22:10:01.676Z,96665.00
2022-12-14T22:12:29.664Z,96677.00
2022-12-14T22:14:57.357Z,96684.00
2022-12-14T22:17:25.143Z,96680.00
2022-12-14T22:19:54.911Z,96685.00
2022-12-14T22:22:22.618Z,96684.00
2022-12-14T22:24:51.168Z,96676.00
2022-12-14T22:27:21.174Z,96679.00
2022-12-14T22:29:48.832Z,96667.00
2022-12-14T22:32:16.625Z,96670.00
2022-12-14T22:34:44.897Z,96685.00
2022-12-14T22:37:14.618Z,96680.00
2022-12-14T22:39:42.328Z,96680.00
2022-12-14T22:42:10.548Z,96677.00
2022-12-14T22:44:40.256Z,96689.00
2022-12-14T22:47:08.030Z,96686.00
2022-12-14T22:49:35.680Z,96685.00
2022-12-14T22:52:03.350Z,96688.00
2022-12-14T22:54:31.335Z,96697.00
2022-12-14T22:57:02.318Z,96698.00
2022-12-14T22:59:36.282Z,96701.00
2022-12-14T23:02:05.856Z,96705.00
2022-12-14T23:04:33.960Z,96707.00
2022-12-14T23:07:01.683Z,96714.00
2022-12-14T23:09:47.113Z,96713.00
2022-12-14T23:12:32.232Z,96720.00
2022-12-14T23:15:17.872Z,96716.00
2022-12-14T23:18:04.396Z,96714.00
2022-12-14T23:20:49.853Z,96720.00
2022-12-14T23:23:35.591Z,96713.00
2022-12-14T23:26:21.269Z,96707.00
2022-12-14T23:29:06.363Z,96711.00
2022-12-14T23:31:51.509Z,96708.00
2022-12-14T23:34:37.953Z,96700.00
2022-12-14T23:37:23.011Z,96709.00
2022-12-14T23:40:08.264Z,96707.00
2022-12-14T23:42:53.388Z,96702.00
2022-12-14T23:45:38.500Z,96713.00
2022-12-14T23:48:24.258Z,96713.00
2022-12-14T23:51:11.101Z,96719.00
2022-12-14T23:53:56.268Z,96719.00
2022-12-14T23:56:41.596Z,96722.00
2022-12-14T23:59:31.892Z,96720.00
